Flight Track Log - Related Links

Times and Time Zones

All times are in EDT time to prevent confusion due to time zone crossing. See the N762NC flight status page for this flight to view local times or setup timezone preferences in your user account.

Time Position Orientation Groundspeed Altitude Reporting Facility
EDT Latitude Longitude Course Direction KTS MPH feet Rate Location/Type
Mon 10:31:11 AM 39.8283 -84.2678 221° Southwest 237 273 3,500  Level Indianapolis Center
Mon 10:32:13 AM 39.7906 -84.3464 238° Southwest 249 287 5,300 2,129 Climbing Indianapolis Center
Mon 10:33:00 AM 39.6403 -84.6411 243° Southwest  Level FlightAware Approximate
Mon 10:33:15 AM 39.7522 -84.4336 240° Southwest 271 312 7,900  Level Indianapolis Center
Mon 10:34:00 AM 39.5627 -84.7000 180° South  Level FlightAware Approximate
Mon 10:34:17 AM 39.7156 -84.5197 241° Southwest 271 312 9,700  Level Indianapolis Center
Mon 10:35:00 AM 39.4577 -84.7000 180° South  Level FlightAware Approximate
Mon 10:35:19 AM 39.6564 -84.5944 224° Southwest 291 335 11,400  Level Indianapolis Center
Mon 10:36:21 AM 39.5886 -84.6725 222° Southwest 321 369 12,700 1,306 Climbing Indianapolis Center
Mon 10:37:23 AM 39.5058 -84.7747 224° Southwest 350 403 14,100 1,306 Climbing Indianapolis Center
Mon 10:38:25 AM 39.4139 -84.8417 209° Southwest 372 428 15,400 1,210 Climbing Indianapolis Center
Mon 10:39:27 AM 39.3269 -84.9022 208° Southwest 389 448 16,600 1,113 Climbing Indianapolis Center
Mon 10:40:29 AM 39.2247 -84.9728 208° Southwest 411 473 17,700 1,258 Climbing Indianapolis Center
Mon 10:41:31 AM 39.1000 -85.0603 209° Southwest 425 489 19,200 1,355 Climbing Indianapolis Center
Mon 10:42:33 AM 38.9886 -85.1228 204° Southwest 435 501 20,500 1,210 Climbing Indianapolis Center
Mon 10:43:35 AM 38.8792 -85.1933 207° Southwest 439 505 21,700 1,113 Climbing Indianapolis Center
Mon 10:44:37 AM 38.7692 -85.2642 207° Southwest 441 507 22,800 1,113 Climbing Indianapolis Center
Mon 10:45:39 AM 38.6592 -85.3361 207° Southwest 442 509 24,000 1,016 Climbing Indianapolis Center
Mon 10:46:41 AM 38.5239 -85.3969 199° South 449 517 24,900 960 Climbing Indianapolis Center
Mon 10:47:44 AM 38.4014 -85.4492 198° South 457 526 26,000 871 Climbing Indianapolis Center
Mon 10:48:45 AM 38.2806 -85.5086 201° Southwest 461 531 26,700 732 Climbing Indianapolis Center
Mon 10:49:47 AM 38.1622 -85.5825 206° Southwest 468 539 27,500 919 Climbing Indianapolis Center
Mon 10:50:49 AM 38.0458 -85.6542 206° Southwest 466 536 28,600 726 Climbing Indianapolis Center
Mon 10:51:51 AM 37.9294 -85.7283 207° Southwest 465 535 29,000 194 Climbing Indianapolis Center
Mon 10:52:53 AM 37.8142 -85.8058 208° Southwest 466 536 29,000  Level Indianapolis Center
Mon 10:53:55 AM 37.6850 -85.9117 213° Southwest 459 528 29,000  Level Indianapolis Center
Mon 10:54:57 AM 37.5808 -86.0042 215° Southwest 457 526 29,000  Level Indianapolis Center
Mon 10:55:59 AM 37.4658 -86.0925 211° Southwest 457 526 29,000  Level Indianapolis Center
Mon 10:57:01 AM 37.3542 -86.1714 209° Southwest 457 526 29,000  Level Indianapolis Center
Mon 10:58:03 AM 37.2422 -86.2481 209° Southwest 455 524 29,000  Level Indianapolis Center
Mon 10:59:05 AM 37.1278 -86.3194 206° Southwest 455 524 29,000  Level Indianapolis Center
Mon 11:00:12 AM 36.9936 -86.3961 205° Southwest 462 532 29,000  Level Memphis Center
Mon 11:01:12 AM 36.8764 -86.4458 199° South 456 525 29,000  Level Memphis Center
Mon 11:02:12 AM 36.7467 -86.4289 174° South 444 511 29,000  Level Memphis Center
Mon 11:03:12 AM 36.6339 -86.4214 177° South 458 527 29,000  Level Memphis Center
Mon 11:04:12 AM 36.5064 -86.4097 176° South 468 539 29,000  Level Memphis Center
Mon 11:05:12 AM 36.3789 -86.3978 176° South 462 532 29,000  Level Memphis Center
Mon 11:06:12 AM 36.2492 -86.3886 177° South 462 532 29,000  Level Memphis Center
Mon 11:07:12 AM 36.1094 -86.3800 177° South 462 532 29,000  Level Memphis Center
Mon 11:08:12 AM 35.9842 -86.3733 178° South 462 532 29,000  Level Memphis Center
Mon 11:10:12 AM 35.7364 -86.3411 174° South 460 529 29,000  Level Atlanta Center
Mon 11:11:12 AM 35.6253 -86.2511 147° Southeast 453 521 29,000  Level Atlanta Center
Mon 11:12:12 AM 35.5331 -86.1697 144° Southeast 467 537 29,000  Level Atlanta Center
Mon 11:13:12 AM 35.4239 -86.0853 148° Southeast 461 531 29,000  Level Atlanta Center
Mon 11:14:12 AM 35.3061 -86.0136 154° Southeast 461 531 29,000  Level Atlanta Center
Mon 11:15:12 AM 35.1922 -85.9500 155° Southeast 461 531 29,000  Level Atlanta Center
Mon 11:16:12 AM 35.0806 -85.8864 155° Southeast 456 525 29,000  Level Atlanta Center
Mon 11:17:12 AM 34.9647 -85.8181 154° Southeast 456 525 29,000 -600 Level Atlanta Center
Mon 11:18:12 AM 34.8553 -85.7347 148° Southeast 456 525 27,800 -1,400 Descending Atlanta Center
Mon 11:19:12 AM 34.7481 -85.6339 142° Southeast 477 549 26,200 -2,100 Descending Atlanta Center
Mon 11:20:12 AM 34.6492 -85.5311 139° Southeast 482 555 23,600 -2,950 Descending Atlanta Center
Mon 11:21:12 AM 34.5525 -85.4308 139° Southeast 471 542 20,300 -3,100 Descending Atlanta Center
Mon 11:22:12 AM 34.4531 -85.3461 145° Southeast 457 526 17,400 -2,800 Descending Atlanta Center
Mon 11:23:12 AM 34.3539 -85.2667 147° Southeast 445 512 14,700 -2,200 Descending Atlanta Center
Mon 11:24:12 AM 34.2606 -85.2025 150° Southeast 412 474 13,000 -850 Descending Atlanta Center
Mon 11:25:12 AM 34.1858 -85.1361 144° Southeast 361 415 13,000  Level Atlanta Center
Mon 11:26:12 AM 34.1281 -85.0625 133° Southeast 313 360 13,000 -150 Level Atlanta Center
Mon 11:27:12 AM 34.0744 -84.9919 133° Southeast 290 334 12,700 -1,000 Descending Atlanta Center
Mon 11:28:12 AM 34.0017 -84.9583 159° South 278 320 11,000 -1,500 Descending Atlanta Center
Mon 11:29:12 AM 33.9225 -84.9300 163° South 284 327 9,700 -1,000 Descending Atlanta Center
Mon 11:30:12 AM 33.8497 -84.8917 156° South 289 333 9,000 -750 Descending Atlanta Center
Mon 11:31:12 AM 33.7792 -84.8486 153° Southeast 284 327 8,200 -1,100 Descending Atlanta Center
Mon 11:32:12 AM 33.7106 -84.8081 154° Southeast 279 321 6,800 -1,050 Descending Atlanta Center
Mon 11:33:12 AM 33.6586 -84.7600 142° Southeast 257 296 6,100 -955 Descending Atlanta Center
Mon 11:34:24 AM 33.6500 -84.6667 96° East 192 221 4,700 -1,045 Descending Atlanta TRACON
Mon 11:35:24 AM 33.6500 -84.6167 90° East 180 207 3,800 -1,000 Descending Atlanta TRACON
Mon 11:36:24 AM 33.6500 -84.5500 90° East 188 216 2,700 -950 Descending Atlanta TRACON
Mon 11:37:24 AM 33.6500 -84.5000 90° East 157 181 1,900 -800 Descending Atlanta TRACON

Login

Don't have an account? Register now (free) for customized features, flight alerts, and more!